sensor_id;sensor_type;location;lat;lon;timestamp;temperature;humidity
314;DHT22;143;51.634;7.112;2023-09-08T00:02:27;22.20;1.00
314;DHT22;143;51.634;7.112;2023-09-08T00:04:53;22.20;1.00
314;DHT22;143;51.634;7.112;2023-09-08T00:07:19;22.20;1.00
314;DHT22;143;51.634;7.112;2023-09-08T00:09:45;22.10;1.00
314;DHT22;143;51.634;7.112;2023-09-08T00:12:11;22.10;1.00
314;DHT22;143;51.634;7.112;2023-09-08T00:14:37;22.00;1.00
314;DHT22;143;51.634;7.112;2023-09-08T00:17:02;22.00;1.00
314;DHT22;143;51.634;7.112;2023-09-08T00:19:28;22.00;1.00
314;DHT22;143;51.634;7.112;2023-09-08T00:21:54;21.90;1.00
314;DHT22;143;51.634;7.112;2023-09-08T00:24:19;21.90;1.00
314;DHT22;143;51.634;7.112;2023-09-08T00:26:45;21.80;1.00
314;DHT22;143;51.634;7.112;2023-09-08T00:29:11;21.80;1.00
314;DHT22;143;51.634;7.112;2023-09-08T00:31:36;21.70;1.00
314;DHT22;143;51.634;7.112;2023-09-08T00:34:02;21.60;1.00
314;DHT22;143;51.634;7.112;2023-09-08T00:36:28;21.60;1.00
314;DHT22;143;51.634;7.112;2023-09-08T00:38:53;21.50;1.00
314;DHT22;143;51.634;7.112;2023-09-08T00:41:19;21.40;1.00
314;DHT22;143;51.634;7.112;2023-09-08T00:43:45;21.40;1.00
314;DHT22;143;51.634;7.112;2023-09-08T00:46:11;21.30;1.00
314;DHT22;143;51.634;7.112;2023-09-08T00:48:37;21.20;1.00
314;DHT22;143;51.634;7.112;2023-09-08T00:51:03;21.10;1.00
314;DHT22;143;51.634;7.112;2023-09-08T00:53:31;21.00;1.00
314;DHT22;143;51.634;7.112;2023-09-08T00:55:58;21.00;1.00
314;DHT22;143;51.634;7.112;2023-09-08T00:58:25;20.90;1.00
314;DHT22;143;51.634;7.112;2023-09-08T01:00:50;20.80;1.00
314;DHT22;143;51.634;7.112;2023-09-08T01:03:16;20.70;1.00
314;DHT22;143;51.634;7.112;2023-09-08T01:05:42;20.70;1.00
314;DHT22;143;51.634;7.112;2023-09-08T01:08:09;20.70;1.00
314;DHT22;143;51.634;7.112;2023-09-08T01:10:35;20.70;1.00
314;DHT22;143;51.634;7.112;2023-09-08T01:13:02;20.70;1.00
314;DHT22;143;51.634;7.112;2023-09-08T01:15:28;20.60;1.00
314;DHT22;143;51.634;7.112;2023-09-08T01:17:54;20.60;1.00
314;DHT22;143;51.634;7.112;2023-09-08T01:20:23;20.60;1.00
314;DHT22;143;51.634;7.112;2023-09-08T01:25:55;20.60;5.50
314;DHT22;143;51.634;7.112;2023-09-08T01:28:22;20.60;11.10
314;DHT22;143;51.634;7.112;2023-09-08T01:30:49;20.50;12.60
314;DHT22;143;51.634;7.112;2023-09-08T01:33:15;20.50;10.20
314;DHT22;143;51.634;7.112;2023-09-08T01:35:42;20.50;10.20
314;DHT22;143;51.634;7.112;2023-09-08T01:38:08;20.40;18.90
314;DHT22;143;51.634;7.112;2023-09-08T01:40:34;20.40;17.40
314;DHT22;143;51.634;7.112;2023-09-08T01:43:00;20.40;23.10
314;DHT22;143;51.634;7.112;2023-09-08T01:45:25;20.40;30.50
314;DHT22;143;51.634;7.112;2023-09-08T01:47:51;20.40;40.40
314;DHT22;143;51.634;7.112;2023-09-08T01:50:17;20.40;43.90
314;DHT22;143;51.634;7.112;2023-09-08T01:52:47;20.40;48.90
314;DHT22;143;51.634;7.112;2023-09-08T01:55:13;20.30;55.00
314;DHT22;143;51.634;7.112;2023-09-08T01:57:38;20.30;59.50
314;DHT22;143;51.634;7.112;2023-09-08T02:00:04;20.30;64.80
314;DHT22;143;51.634;7.112;2023-09-08T02:02:30;20.30;67.70
314;DHT22;143;51.634;7.112;2023-09-08T02:04:56;20.30;70.60
314;DHT22;143;51.634;7.112;2023-09-08T02:07:22;20.30;77.40
314;DHT22;143;51.634;7.112;2023-09-08T02:09:47;20.30;81.20
314;DHT22;143;51.634;7.112;2023-09-08T02:12:13;20.30;84.80
314;DHT22;143;51.634;7.112;2023-09-08T02:14:39;20.20;84.90
314;DHT22;143;51.634;7.112;2023-09-08T02:17:05;20.20;89.60
314;DHT22;143;51.634;7.112;2023-09-08T02:19:31;20.20;91.90
314;DHT22;143;51.634;7.112;2023-09-08T02:21:57;20.20;93.60
314;DHT22;143;51.634;7.112;2023-09-08T02:24:23;20.20;95.60
314;DHT22;143;51.634;7.112;2023-09-08T02:26:49;20.20;97.80
314;DHT22;143;51.634;7.112;2023-09-08T02:29:15;20.20;99.90
314;DHT22;143;51.634;7.112;2023-09-08T02:31:40;20.10;99.90
314;DHT22;143;51.634;7.112;2023-09-08T02:34:06;20.10;99.90
314;DHT22;143;51.634;7.112;2023-09-08T02:36:32;20.10;99.90
314;DHT22;143;51.634;7.112;2023-09-08T02:38:57;20.10;99.90
314;DHT22;143;51.634;7.112;2023-09-08T02:41:23;20.00;99.90
314;DHT22;143;51.634;7.112;2023-09-08T02:43:49;20.00;99.90
314;DHT22;143;51.634;7.112;2023-09-08T02:46:15;20.00;99.90
314;DHT22;143;51.634;7.112;2023-09-08T02:48:41;20.00;99.90
314;DHT22;143;51.634;7.112;2023-09-08T02:51:07;19.90;99.90
314;DHT22;143;51.634;7.112;2023-09-08T02:53:33;19.90;99.90
314;DHT22;143;51.634;7.112;2023-09-08T02:55:59;19.90;99.90
314;DHT22;143;51.634;7.112;2023-09-08T02:58:26;19.90;99.90
314;DHT22;143;51.634;7.112;2023-09-08T03:00:52;19.90;99.90
314;DHT22;143;51.634;7.112;2023-09-08T03:03:19;19.80;99.90
314;DHT22;143;51.634;7.112;2023-09-08T03:05:45;19.80;99.90
314;DHT22;143;51.634;7.112;2023-09-08T03:08:11;19.80;99.90
314;DHT22;143;51.634;7.112;2023-09-08T03:10:36;19.80;99.90
314;DHT22;143;51.634;7.112;2023-09-08T03:13:03;19.70;99.90
314;DHT22;143;51.634;7.112;2023-09-08T03:15:29;19.70;99.90
314;DHT22;143;51.634;7.112;2023-09-08T03:17:55;19.60;99.90
314;DHT22;143;51.634;7.112;2023-09-08T03:20:21;19.60;99.90
314;DHT22;143;51.634;7.112;2023-09-08T03:22:47;19.60;99.90
314;DHT22;143;51.634;7.112;2023-09-08T03:25:16;19.60;99.90
314;DHT22;143;51.634;7.112;2023-09-08T03:27:41;19.50;99.90
314;DHT22;143;51.634;7.112;2023-09-08T03:30:07;19.50;99.90
314;DHT22;143;51.634;7.112;2023-09-08T03:32:33;19.50;99.90
314;DHT22;143;51.634;7.112;2023-09-08T03:34:59;19.50;99.90
314;DHT22;143;51.634;7.112;2023-09-08T03:37:25;19.50;99.90
314;DHT22;143;51.634;7.112;2023-09-08T03:39:52;19.50;99.90
314;DHT22;143;51.634;7.112;2023-09-08T03:42:18;19.50;99.90
314;DHT22;143;51.634;7.112;2023-09-08T03:44:44;19.50;99.90
314;DHT22;143;51.634;7.112;2023-09-08T03:47:09;19.50;99.90
314;DHT22;143;51.634;7.112;2023-09-08T03:49:35;19.50;99.90
314;DHT22;143;51.634;7.112;2023-09-08T03:52:01;19.50;99.90
314;DHT22;143;51.634;7.112;2023-09-08T03:54:27;19.50;99.90
314;DHT22;143;51.634;7.112;2023-09-08T03:56:52;19.40;99.90
314;DHT22;143;51.634;7.112;2023-09-08T03:59:18;19.40;99.90
314;DHT22;143;51.634;7.112;2023-09-08T04:01:44;19.40;99.90
314;DHT22;143;51.634;7.112;2023-09-08T04:04:09;19.40;99.90
314;DHT22;143;51.634;7.112;2023-09-08T04:06:35;19.40;99.90
314;DHT22;143;51.634;7.112;2023-09-08T04:09:01;19.40;99.90
314;DHT22;143;51.634;7.112;2023-09-08T04:11:26;19.40;99.90
314;DHT22;143;51.634;7.112;2023-09-08T04:13:52;19.40;99.90
314;DHT22;143;51.634;7.112;2023-09-08T04:16:18;19.40;99.90
314;DHT22;143;51.634;7.112;2023-09-08T04:18:43;19.40;99.90
314;DHT22;143;51.634;7.112;2023-09-08T04:21:10;19.30;99.90
314;DHT22;143;51.634;7.112;2023-09-08T04:23:36;19.30;99.90
314;DHT22;143;51.634;7.112;2023-09-08T04:26:02;19.30;99.90
314;DHT22;143;51.634;7.112;2023-09-08T04:28:27;19.20;99.90
314;DHT22;143;51.634;7.112;2023-09-08T04:30:53;19.20;99.90
314;DHT22;143;51.634;7.112;2023-09-08T04:33:19;19.20;99.90
314;DHT22;143;51.634;7.112;2023-09-08T04:35:44;19.20;99.90
314;DHT22;143;51.634;7.112;2023-09-08T04:38:10;19.20;99.90
314;DHT22;143;51.634;7.112;2023-09-08T04:40:39;19.20;99.90
314;DHT22;143;51.634;7.112;2023-09-08T04:43:05;19.10;99.90
314;DHT22;143;51.634;7.112;2023-09-08T04:45:31;19.10;99.90
314;DHT22;143;51.634;7.112;2023-09-08T04:47:56;19.10;99.90
314;DHT22;143;51.634;7.112;2023-09-08T04:50:22;19.00;99.90
314;DHT22;143;51.634;7.112;2023-09-08T04:52:48;19.00;99.90
314;DHT22;143;51.634;7.112;2023-09-08T04:55:13;19.00;99.90
314;DHT22;143;51.634;7.112;2023-09-08T04:57:39;19.00;99.90
314;DHT22;143;51.634;7.112;2023-09-08T05:00:05;19.00;99.90
314;DHT22;143;51.634;7.112;2023-09-08T05:02:32;19.00;99.90
314;DHT22;143;51.634;7.112;2023-09-08T05:04:57;19.00;99.90
314;DHT22;143;51.634;7.112;2023-09-08T05:07:23;19.00;99.90
314;DHT22;143;51.634;7.112;2023-09-08T05:09:49;19.00;99.90
314;DHT22;143;51.634;7.112;2023-09-08T05:12:15;18.90;99.90
314;DHT22;143;51.634;7.112;2023-09-08T05:14:40;18.90;99.90
314;DHT22;143;51.634;7.112;2023-09-08T05:17:06;18.90;99.90
314;DHT22;143;51.634;7.112;2023-09-08T05:19:32;18.90;99.90
314;DHT22;143;51.634;7.112;2023-09-08T05:21:58;19.00;99.90
314;DHT22;143;51.634;7.112;2023-09-08T05:24:23;19.00;99.90
314;DHT22;143;51.634;7.112;2023-09-08T05:26:51;19.00;99.90
314;DHT22;143;51.634;7.112;2023-09-08T05:29:16;18.90;99.90
314;DHT22;143;51.634;7.112;2023-09-08T05:31:42;18.90;99.90
314;DHT22;143;51.634;7.112;2023-09-08T05:34:08;19.00;99.90
314;DHT22;143;51.634;7.112;2023-09-08T05:36:34;19.00;99.90
314;DHT22;143;51.634;7.112;2023-09-08T05:39:02;19.00;99.90
314;DHT22;143;51.634;7.112;2023-09-08T05:41:28;19.00;99.90
314;DHT22;143;51.634;7.112;2023-09-08T05:43:54;19.00;99.90
314;DHT22;143;51.634;7.112;2023-09-08T05:46:19;19.00;99.90
314;DHT22;143;51.634;7.112;2023-09-08T05:48:45;19.00;99.90
314;DHT22;143;51.634;7.112;2023-09-08T05:51:13;19.00;99.90
314;DHT22;143;51.634;7.112;2023-09-08T05:53:39;19.10;99.90
314;DHT22;143;51.634;7.112;2023-09-08T05:56:06;19.10;99.90
314;DHT22;143;51.634;7.112;2023-09-08T05:58:32;19.10;99.90
314;DHT22;143;51.634;7.112;2023-09-08T06:01:02;19.10;99.90
314;DHT22;143;51.634;7.112;2023-09-08T06:03:28;19.10;99.90
314;DHT22;143;51.634;7.112;2023-09-08T06:05:54;19.20;99.90
314;DHT22;143;51.634;7.112;2023-09-08T06:08:20;19.20;99.90
314;DHT22;143;51.634;7.112;2023-09-08T06:10:45;19.20;99.90
314;DHT22;143;51.634;7.112;2023-09-08T06:13:11;19.30;99.90
314;DHT22;143;51.634;7.112;2023-09-08T06:15:37;19.30;99.90
314;DHT22;143;51.634;7.112;2023-09-08T06:18:02;19.30;99.90
314;DHT22;143;51.634;7.112;2023-09-08T06:20:28;19.40;99.90
314;DHT22;143;51.634;7.112;2023-09-08T06:22:54;19.40;99.90
314;DHT22;143;51.634;7.112;2023-09-08T06:25:19;19.50;99.90
314;DHT22;143;51.634;7.112;2023-09-08T06:27:45;19.50;99.90
314;DHT22;143;51.634;7.112;2023-09-08T06:30:11;19.70;99.90
314;DHT22;143;51.634;7.112;2023-09-08T06:32:39;19.70;99.90
314;DHT22;143;51.634;7.112;2023-09-08T06:35:05;19.80;99.90
314;DHT22;143;51.634;7.112;2023-09-08T06:37:38;19.90;99.90
314;DHT22;143;51.634;7.112;2023-09-08T06:40:05;20.00;99.90
314;DHT22;143;51.634;7.112;2023-09-08T06:42:31;20.00;99.90
314;DHT22;143;51.634;7.112;2023-09-08T06:44:57;20.10;99.90
314;DHT22;143;51.634;7.112;2023-09-08T06:47:22;20.20;99.90
314;DHT22;143;51.634;7.112;2023-09-08T06:49:48;20.30;99.90
314;DHT22;143;51.634;7.112;2023-09-08T06:52:14;20.40;99.90
314;DHT22;143;51.634;7.112;2023-09-08T06:54:39;20.50;99.90
314;DHT22;143;51.634;7.112;2023-09-08T06:57:05;20.50;99.90
314;DHT22;143;51.634;7.112;2023-09-08T06:59:31;20.60;99.90
314;DHT22;143;51.634;7.112;2023-09-08T07:01:56;20.70;99.90
314;DHT22;143;51.634;7.112;2023-09-08T07:04:22;20.80;99.90
314;DHT22;143;51.634;7.112;2023-09-08T07:06:48;20.90;99.90
314;DHT22;143;51.634;7.112;2023-09-08T07:09:15;21.00;99.90
314;DHT22;143;51.634;7.112;2023-09-08T07:11:41;21.10;99.90
314;DHT22;143;51.634;7.112;2023-09-08T07:14:07;21.20;99.90
314;DHT22;143;51.634;7.112;2023-09-08T07:16:33;21.30;99.90
314;DHT22;143;51.634;7.112;2023-09-08T07:18:59;21.40;99.90
314;DHT22;143;51.634;7.112;2023-09-08T07:21:27;21.50;99.90
314;DHT22;143;51.634;7.112;2023-09-08T07:23:52;21.60;99.90
314;DHT22;143;51.634;7.112;2023-09-08T07:26:19;21.80;99.90
314;DHT22;143;51.634;7.112;2023-09-08T07:28:45;21.90;92.40
314;DHT22;143;51.634;7.112;2023-09-08T07:31:11;22.00;61.60
314;DHT22;143;51.634;7.112;2023-09-08T07:33:37;22.10;35.40
314;DHT22;143;51.634;7.112;2023-09-08T07:36:07;22.20;5.80
314;DHT22;143;51.634;7.112;2023-09-08T07:38:34;22.30;1.00
314;DHT22;143;51.634;7.112;2023-09-08T07:41:03;22.40;1.00
314;DHT22;143;51.634;7.112;2023-09-08T07:43:29;22.50;1.00
314;DHT22;143;51.634;7.112;2023-09-08T07:45:55;22.60;1.00
314;DHT22;143;51.634;7.112;2023-09-08T07:48:20;22.70;1.00
314;DHT22;143;51.634;7.112;2023-09-08T07:50:46;22.80;1.00
314;DHT22;143;51.634;7.112;2023-09-08T07:53:12;22.80;1.00
314;DHT22;143;51.634;7.112;2023-09-08T07:55:38;22.90;1.00
314;DHT22;143;51.634;7.112;2023-09-08T07:58:03;23.10;1.00
314;DHT22;143;51.634;7.112;2023-09-08T08:00:30;23.10;1.00
314;DHT22;143;51.634;7.112;2023-09-08T08:02:57;23.20;1.00
314;DHT22;143;51.634;7.112;2023-09-08T08:05:23;23.30;1.00
314;DHT22;143;51.634;7.112;2023-09-08T08:07:49;23.40;1.00
314;DHT22;143;51.634;7.112;2023-09-08T08:10:15;23.50;1.00
314;DHT22;143;51.634;7.112;2023-09-08T08:12:42;23.60;1.00
314;DHT22;143;51.634;7.112;2023-09-08T08:15:08;23.70;1.00
314;DHT22;143;51.634;7.112;2023-09-08T08:17:36;23.80;1.00
314;DHT22;143;51.634;7.112;2023-09-08T08:20:03;23.90;1.00
314;DHT22;143;51.634;7.112;2023-09-08T08:22:38;24.00;1.00
314;DHT22;143;51.634;7.112;2023-09-08T08:25:04;24.10;1.00
314;DHT22;143;51.634;7.112;2023-09-08T08:27:30;24.20;1.00
314;DHT22;143;51.634;7.112;2023-09-08T08:29:57;24.20;1.00
314;DHT22;143;51.634;7.112;2023-09-08T08:32:28;24.30;1.00
314;DHT22;143;51.634;7.112;2023-09-08T08:34:54;24.40;1.00
314;DHT22;143;51.634;7.112;2023-09-08T08:37:20;24.50;1.00
314;DHT22;143;51.634;7.112;2023-09-08T08:39:46;24.60;1.00
314;DHT22;143;51.634;7.112;2023-09-08T08:42:11;24.70;1.00
314;DHT22;143;51.634;7.112;2023-09-08T08:44:38;24.80;1.00
314;DHT22;143;51.634;7.112;2023-09-08T08:47:06;24.90;1.00
314;DHT22;143;51.634;7.112;2023-09-08T08:49:33;24.90;1.00
314;DHT22;143;51.634;7.112;2023-09-08T08:51:59;25.10;1.00
314;DHT22;143;51.634;7.112;2023-09-08T08:54:27;25.10;1.00
314;DHT22;143;51.634;7.112;2023-09-08T08:56:53;25.20;1.00
314;DHT22;143;51.634;7.112;2023-09-08T08:59:19;25.30;1.00
314;DHT22;143;51.634;7.112;2023-09-08T09:01:45;25.40;1.00
314;DHT22;143;51.634;7.112;2023-09-08T09:04:12;25.50;1.00
314;DHT22;143;51.634;7.112;2023-09-08T09:06:38;25.60;1.00
314;DHT22;143;51.634;7.112;2023-09-08T09:09:04;25.70;1.00
314;DHT22;143;51.634;7.112;2023-09-08T09:11:30;25.80;1.00
314;DHT22;143;51.634;7.112;2023-09-08T09:13:58;25.90;1.00
314;DHT22;143;51.634;7.112;2023-09-08T09:16:24;26.00;1.00
314;DHT22;143;51.634;7.112;2023-09-08T09:18:57;26.10;1.00
314;DHT22;143;51.634;7.112;2023-09-08T09:21:24;26.20;1.00
314;DHT22;143;51.634;7.112;2023-09-08T09:24:06;26.30;1.00
314;DHT22;143;51.634;7.112;2023-09-08T09:26:31;26.30;1.00
314;DHT22;143;51.634;7.112;2023-09-08T09:28:57;26.50;1.00
314;DHT22;143;51.634;7.112;2023-09-08T09:31:25;26.50;1.00
314;DHT22;143;51.634;7.112;2023-09-08T09:34:04;26.70;1.00
314;DHT22;143;51.634;7.112;2023-09-08T09:36:30;26.80;1.00
314;DHT22;143;51.634;7.112;2023-09-08T09:39:00;26.90;1.00
314;DHT22;143;51.634;7.112;2023-09-08T09:41:28;27.00;1.00
314;DHT22;143;51.634;7.112;2023-09-08T09:43:56;27.10;1.00
314;DHT22;143;51.634;7.112;2023-09-08T09:46:21;27.20;1.00
314;DHT22;143;51.634;7.112;2023-09-08T09:48:51;27.30;1.00
314;DHT22;143;51.634;7.112;2023-09-08T09:51:19;27.30;1.00
314;DHT22;143;51.634;7.112;2023-09-08T09:53:45;27.40;1.00
314;DHT22;143;51.634;7.112;2023-09-08T09:56:11;27.40;1.00
314;DHT22;143;51.634;7.112;2023-09-08T09:58:37;27.50;1.00
314;DHT22;143;51.634;7.112;2023-09-08T10:01:04;27.50;1.00
314;DHT22;143;51.634;7.112;2023-09-08T10:03:31;27.70;1.00
314;DHT22;143;51.634;7.112;2023-09-08T10:05:59;27.70;1.00
314;DHT22;143;51.634;7.112;2023-09-08T10:08:25;27.90;1.00
314;DHT22;143;51.634;7.112;2023-09-08T10:10:51;28.00;1.00
314;DHT22;143;51.634;7.112;2023-09-08T10:13:27;28.10;1.00
314;DHT22;143;51.634;7.112;2023-09-08T10:15:58;28.10;1.00
314;DHT22;143;51.634;7.112;2023-09-08T10:18:27;28.20;1.00
314;DHT22;143;51.634;7.112;2023-09-08T10:20:54;28.30;1.00
314;DHT22;143;51.634;7.112;2023-09-08T10:23:31;28.40;1.00
314;DHT22;143;51.634;7.112;2023-09-08T10:26:03;28.50;1.00
314;DHT22;143;51.634;7.112;2023-09-08T10:28:32;28.60;1.00
314;DHT22;143;51.634;7.112;2023-09-08T10:30:59;28.70;1.00
314;DHT22;143;51.634;7.112;2023-09-08T10:33:25;28.80;1.00
314;DHT22;143;51.634;7.112;2023-09-08T10:35:52;28.90;1.00
314;DHT22;143;51.634;7.112;2023-09-08T10:38:22;29.00;1.00
314;DHT22;143;51.634;7.112;2023-09-08T10:40:49;29.10;1.00
314;DHT22;143;51.634;7.112;2023-09-08T10:43:15;29.20;1.00
314;DHT22;143;51.634;7.112;2023-09-08T10:45:40;29.20;1.00
314;DHT22;143;51.634;7.112;2023-09-08T10:48:09;29.40;1.00
314;DHT22;143;51.634;7.112;2023-09-08T10:50:39;29.50;1.00
314;DHT22;143;51.634;7.112;2023-09-08T10:53:16;29.70;1.00
314;DHT22;143;51.634;7.112;2023-09-08T10:55:44;29.80;1.00
314;DHT22;143;51.634;7.112;2023-09-08T10:58:34;29.90;99.90
314;DHT22;143;51.634;7.112;2023-09-08T11:01:01;30.00;99.90
314;DHT22;143;51.634;7.112;2023-09-08T11:03:43;30.10;99.90
314;DHT22;143;51.634;7.112;2023-09-08T11:06:09;30.10;99.90
314;DHT22;143;51.634;7.112;2023-09-08T11:08:42;30.10;99.90
314;DHT22;143;51.634;7.112;2023-09-08T11:11:10;30.10;99.90
314;DHT22;143;51.634;7.112;2023-09-08T11:13:36;30.20;99.90
314;DHT22;143;51.634;7.112;2023-09-08T11:16:01;30.20;99.90
314;DHT22;143;51.634;7.112;2023-09-08T11:18:32;30.30;99.90
314;DHT22;143;51.634;7.112;2023-09-08T11:21:00;30.30;99.90
314;DHT22;143;51.634;7.112;2023-09-08T11:23:26;30.30;99.90
314;DHT22;143;51.634;7.112;2023-09-08T11:25:53;30.50;99.90
314;DHT22;143;51.634;7.112;2023-09-08T11:28:21;30.50;99.90
314;DHT22;143;51.634;7.112;2023-09-08T11:30:47;30.60;99.90
314;DHT22;143;51.634;7.112;2023-09-08T11:33:18;30.60;99.90
314;DHT22;143;51.634;7.112;2023-09-08T11:35:47;30.70;99.90
314;DHT22;143;51.634;7.112;2023-09-08T11:38:14;30.80;99.90
314;DHT22;143;51.634;7.112;2023-09-08T11:40:41;30.90;99.90
314;DHT22;143;51.634;7.112;2023-09-08T11:43:07;30.90;99.90
314;DHT22;143;51.634;7.112;2023-09-08T11:45:37;30.90;99.90
314;DHT22;143;51.634;7.112;2023-09-08T11:48:06;31.00;99.90
314;DHT22;143;51.634;7.112;2023-09-08T11:50:33;31.10;99.90
314;DHT22;143;51.634;7.112;2023-09-08T11:52:59;31.20;99.90
314;DHT22;143;51.634;7.112;2023-09-08T11:55:25;31.20;99.90
314;DHT22;143;51.634;7.112;2023-09-08T11:57:55;31.20;99.90
314;DHT22;143;51.634;7.112;2023-09-08T12:00:27;31.30;99.90
314;DHT22;143;51.634;7.112;2023-09-08T12:02:53;31.30;99.90
314;DHT22;143;51.634;7.112;2023-09-08T12:05:23;31.40;99.90
314;DHT22;143;51.634;7.112;2023-09-08T12:07:51;31.30;99.90
314;DHT22;143;51.634;7.112;2023-09-08T12:10:17;31.30;99.90
314;DHT22;143;51.634;7.112;2023-09-08T12:12:53;31.20;99.90
314;DHT22;143;51.634;7.112;2023-09-08T12:15:49;31.20;99.90
314;DHT22;143;51.634;7.112;2023-09-08T12:18:15;31.30;99.90
314;DHT22;143;51.634;7.112;2023-09-08T12:20:41;31.30;99.90
314;DHT22;143;51.634;7.112;2023-09-08T12:23:18;31.40;99.90
314;DHT22;143;51.634;7.112;2023-09-08T12:25:53;31.50;99.90
314;DHT22;143;51.634;7.112;2023-09-08T12:28:20;31.60;99.90
314;DHT22;143;51.634;7.112;2023-09-08T12:30:46;31.70;99.90
314;DHT22;143;51.634;7.112;2023-09-08T12:33:13;31.70;99.90
314;DHT22;143;51.634;7.112;2023-09-08T12:35:43;31.80;99.90
314;DHT22;143;51.634;7.112;2023-09-08T12:38:09;31.90;99.90
314;DHT22;143;51.634;7.112;2023-09-08T12:40:37;32.00;99.90
314;DHT22;143;51.634;7.112;2023-09-08T12:43:03;32.00;99.90
314;DHT22;143;51.634;7.112;2023-09-08T12:45:29;32.10;99.90
314;DHT22;143;51.634;7.112;2023-09-08T12:47:59;32.10;99.90
314;DHT22;143;51.634;7.112;2023-09-08T12:50:26;32.20;99.90
314;DHT22;143;51.634;7.112;2023-09-08T12:52:51;32.10;99.90
314;DHT22;143;51.634;7.112;2023-09-08T12:55:17;32.20;99.90
314;DHT22;143;51.634;7.112;2023-09-08T12:57:43;32.30;99.90
314;DHT22;143;51.634;7.112;2023-09-08T13:00:09;32.30;99.90
314;DHT22;143;51.634;7.112;2023-09-08T13:02:35;32.30;99.90
314;DHT22;143;51.634;7.112;2023-09-08T13:05:02;32.30;99.90
314;DHT22;143;51.634;7.112;2023-09-08T13:07:27;32.20;99.90
314;DHT22;143;51.634;7.112;2023-09-08T13:09:53;32.20;99.90
314;DHT22;143;51.634;7.112;2023-09-08T13:12:19;32.20;99.90
314;DHT22;143;51.634;7.112;2023-09-08T13:14:45;32.10;99.90
314;DHT22;143;51.634;7.112;2023-09-08T13:17:11;32.10;99.90
314;DHT22;143;51.634;7.112;2023-09-08T13:19:37;32.10;99.90
314;DHT22;143;51.634;7.112;2023-09-08T13:22:04;32.10;99.90
314;DHT22;143;51.634;7.112;2023-09-08T13:24:30;32.20;99.90
314;DHT22;143;51.634;7.112;2023-09-08T13:26:56;32.10;99.90
314;DHT22;143;51.634;7.112;2023-09-08T13:29:21;32.10;99.90
314;DHT22;143;51.634;7.112;2023-09-08T13:31:47;32.10;99.90
314;DHT22;143;51.634;7.112;2023-09-08T13:34:13;32.20;99.90
314;DHT22;143;51.634;7.112;2023-09-08T13:36:39;32.30;99.90
314;DHT22;143;51.634;7.112;2023-09-08T13:39:05;32.40;99.90
314;DHT22;143;51.634;7.112;2023-09-08T13:44:11;32.50;99.90
314;DHT22;143;51.634;7.112;2023-09-08T13:46:37;32.60;99.90
314;DHT22;143;51.634;7.112;2023-09-08T13:49:02;32.60;99.90
314;DHT22;143;51.634;7.112;2023-09-08T13:51:28;32.70;99.90
314;DHT22;143;51.634;7.112;2023-09-08T13:53:54;32.70;99.90
314;DHT22;143;51.634;7.112;2023-09-08T13:56:19;32.80;99.90
314;DHT22;143;51.634;7.112;2023-09-08T13:58:45;32.80;99.90
314;DHT22;143;51.634;7.112;2023-09-08T14:01:11;32.80;99.90
314;DHT22;143;51.634;7.112;2023-09-08T14:03:37;32.90;99.90
314;DHT22;143;51.634;7.112;2023-09-08T14:06:03;32.90;99.90
314;DHT22;143;51.634;7.112;2023-09-08T14:08:29;32.90;99.90
314;DHT22;143;51.634;7.112;2023-09-08T14:10:54;32.90;99.90
314;DHT22;143;51.634;7.112;2023-09-08T14:13:20;32.80;99.90
314;DHT22;143;51.634;7.112;2023-09-08T14:15:46;32.80;99.90
314;DHT22;143;51.634;7.112;2023-09-08T14:18:11;32.80;99.90
314;DHT22;143;51.634;7.112;2023-09-08T14:20:39;32.80;99.90
314;DHT22;143;51.634;7.112;2023-09-08T14:23:05;32.90;99.90
314;DHT22;143;51.634;7.112;2023-09-08T14:25:33;32.90;99.90
314;DHT22;143;51.634;7.112;2023-09-08T14:27:58;32.90;99.90
314;DHT22;143;51.634;7.112;2023-09-08T14:30:24;32.90;99.90
314;DHT22;143;51.634;7.112;2023-09-08T14:32:50;33.00;99.90
314;DHT22;143;51.634;7.112;2023-09-08T14:35:16;33.00;99.90
314;DHT22;143;51.634;7.112;2023-09-08T14:37:41;33.00;99.90
314;DHT22;143;51.634;7.112;2023-09-08T14:40:07;33.10;99.90
314;DHT22;143;51.634;7.112;2023-09-08T14:42:33;33.10;99.90
314;DHT22;143;51.634;7.112;2023-09-08T14:44:59;33.10;99.90
314;DHT22;143;51.634;7.112;2023-09-08T14:47:24;33.10;99.90
314;DHT22;143;51.634;7.112;2023-09-08T14:49:50;33.10;99.90
314;DHT22;143;51.634;7.112;2023-09-08T14:52:16;33.20;99.90
314;DHT22;143;51.634;7.112;2023-09-08T14:54:43;33.10;99.90
314;DHT22;143;51.634;7.112;2023-09-08T14:57:09;33.20;99.90
314;DHT22;143;51.634;7.112;2023-09-08T14:59:34;33.20;99.90
314;DHT22;143;51.634;7.112;2023-09-08T15:02:00;33.20;99.90
314;DHT22;143;51.634;7.112;2023-09-08T15:04:25;33.20;99.90
314;DHT22;143;51.634;7.112;2023-09-08T15:06:51;33.20;99.90
314;DHT22;143;51.634;7.112;2023-09-08T15:09:17;33.20;99.90
314;DHT22;143;51.634;7.112;2023-09-08T15:11:42;33.30;99.90
314;DHT22;143;51.634;7.112;2023-09-08T15:14:09;33.30;99.90
314;DHT22;143;51.634;7.112;2023-09-08T15:16:34;33.30;99.90
314;DHT22;143;51.634;7.112;2023-09-08T15:19:00;33.30;99.90
314;DHT22;143;51.634;7.112;2023-09-08T15:21:26;33.30;99.90
314;DHT22;143;51.634;7.112;2023-09-08T15:23:55;33.20;99.90
314;DHT22;143;51.634;7.112;2023-09-08T15:26:21;33.30;99.90
314;DHT22;143;51.634;7.112;2023-09-08T15:28:46;33.30;99.90
314;DHT22;143;51.634;7.112;2023-09-08T15:31:15;33.30;99.90
314;DHT22;143;51.634;7.112;2023-09-08T15:33:41;33.20;99.90
314;DHT22;143;51.634;7.112;2023-09-08T15:36:07;33.20;99.90
314;DHT22;143;51.634;7.112;2023-09-08T15:38:32;33.10;99.90
314;DHT22;143;51.634;7.112;2023-09-08T15:43:37;32.90;99.90
314;DHT22;143;51.634;7.112;2023-09-08T15:46:04;32.90;99.90
314;DHT22;143;51.634;7.112;2023-09-08T15:48:30;32.80;99.90
314;DHT22;143;51.634;7.112;2023-09-08T15:50:56;32.80;99.90
314;DHT22;143;51.634;7.112;2023-09-08T15:53:22;32.80;99.90
314;DHT22;143;51.634;7.112;2023-09-08T15:55:47;32.80;99.90
314;DHT22;143;51.634;7.112;2023-09-08T15:58:13;32.80;99.90
314;DHT22;143;51.634;7.112;2023-09-08T16:00:39;32.80;99.90
314;DHT22;143;51.634;7.112;2023-09-08T16:03:04;32.80;99.90
314;DHT22;143;51.634;7.112;2023-09-08T16:05:30;32.80;99.90
314;DHT22;143;51.634;7.112;2023-09-08T16:07:56;32.80;99.90
314;DHT22;143;51.634;7.112;2023-09-08T16:10:21;32.80;99.90
314;DHT22;143;51.634;7.112;2023-09-08T16:12:47;32.80;99.90
314;DHT22;143;51.634;7.112;2023-09-08T16:15:14;32.80;99.90
314;DHT22;143;51.634;7.112;2023-09-08T16:17:40;32.80;99.90
314;DHT22;143;51.634;7.112;2023-09-08T16:20:07;32.80;99.90
314;DHT22;143;51.634;7.112;2023-09-08T16:22:32;32.80;99.90
314;DHT22;143;51.634;7.112;2023-09-08T16:24:58;32.60;99.90
314;DHT22;143;51.634;7.112;2023-09-08T16:27:24;32.60;99.90
314;DHT22;143;51.634;7.112;2023-09-08T16:29:49;32.60;99.90
314;DHT22;143;51.634;7.112;2023-09-08T16:32:15;32.50;99.90
314;DHT22;143;51.634;7.112;2023-09-08T16:34:41;32.50;99.90
314;DHT22;143;51.634;7.112;2023-09-08T16:37:06;32.40;99.90
314;DHT22;143;51.634;7.112;2023-09-08T16:39:32;32.40;99.90
314;DHT22;143;51.634;7.112;2023-09-08T16:41:58;32.30;99.90
314;DHT22;143;51.634;7.112;2023-09-08T16:44:24;32.30;99.90